sensor_id;sensor_type;location;lat;lon;timestamp;P1;durP1;ratioP1;P2;durP2;ratioP2
7759;SDS011;3924;48.830;9.262;2022-11-20T00:02:51;19.47;;;6.60;;
7759;SDS011;3924;48.830;9.262;2022-11-20T00:05:39;8.30;;;6.27;;
7759;SDS011;3924;48.830;9.262;2022-11-20T00:08:22;10.53;;;6.33;;
7759;SDS011;3924;48.830;9.262;2022-11-20T00:11:21;17.77;;;6.73;;
7759;SDS011;3924;48.830;9.262;2022-11-20T00:14:00;14.43;;;6.50;;
7759;SDS011;3924;48.830;9.262;2022-11-20T00:16:44;19.20;;;6.80;;
7759;SDS011;3924;48.830;9.262;2022-11-20T00:19:21;13.13;;;5.97;;
7759;SDS011;3924;48.830;9.262;2022-11-20T00:21:48;13.47;;;6.33;;
7759;SDS011;3924;48.830;9.262;2022-11-20T00:24:17;14.03;;;6.67;;
7759;SDS011;3924;48.830;9.262;2022-11-20T00:26:43;11.37;;;6.40;;
7759;SDS011;3924;48.830;9.262;2022-11-20T00:29:10;11.13;;;6.50;;
7759;SDS011;3924;48.830;9.262;2022-11-20T00:31:36;9.03;;;5.87;;
7759;SDS011;3924;48.830;9.262;2022-11-20T00:34:03;9.00;;;6.30;;
7759;SDS011;3924;48.830;9.262;2022-11-20T00:36:32;10.87;;;7.13;;
7759;SDS011;3924;48.830;9.262;2022-11-20T00:39:00;8.67;;;6.10;;
7759;SDS011;3924;48.830;9.262;2022-11-20T00:41:27;8.90;;;6.07;;
7759;SDS011;3924;48.830;9.262;2022-11-20T00:43:54;8.47;;;6.17;;
7759;SDS011;3924;48.830;9.262;2022-11-20T00:46:23;8.00;;;5.87;;
7759;SDS011;3924;48.830;9.262;2022-11-20T00:48:51;17.87;;;7.40;;
7759;SDS011;3924;48.830;9.262;2022-11-20T00:51:20;11.13;;;6.20;;
7759;SDS011;3924;48.830;9.262;2022-11-20T00:53:48;12.47;;;7.07;;
7759;SDS011;3924;48.830;9.262;2022-11-20T00:56:16;9.90;;;6.77;;
7759;SDS011;3924;48.830;9.262;2022-11-20T00:58:44;8.13;;;5.80;;
7759;SDS011;3924;48.830;9.262;2022-11-20T01:01:14;9.43;;;6.30;;
7759;SDS011;3924;48.830;9.262;2022-11-20T01:03:44;8.17;;;6.20;;
7759;SDS011;3924;48.830;9.262;2022-11-20T01:06:14;9.40;;;6.40;;
7759;SDS011;3924;48.830;9.262;2022-11-20T01:08:42;10.03;;;6.37;;
7759;SDS011;3924;48.830;9.262;2022-11-20T01:11:15;7.97;;;6.13;;
7759;SDS011;3924;48.830;9.262;2022-11-20T01:13:46;8.23;;;6.10;;
7759;SDS011;3924;48.830;9.262;2022-11-20T01:16:15;6.63;;;5.77;;
7759;SDS011;3924;48.830;9.262;2022-11-20T01:18:44;8.83;;;6.27;;
7759;SDS011;3924;48.830;9.262;2022-11-20T01:21:13;7.33;;;5.77;;
7759;SDS011;3924;48.830;9.262;2022-11-20T01:23:42;7.57;;;6.23;;
7759;SDS011;3924;48.830;9.262;2022-11-20T01:26:10;9.10;;;6.43;;
7759;SDS011;3924;48.830;9.262;2022-11-20T01:28:39;7.53;;;5.30;;
7759;SDS011;3924;48.830;9.262;2022-11-20T01:31:22;10.23;;;6.07;;
7759;SDS011;3924;48.830;9.262;2022-11-20T01:33:50;7.53;;;5.80;;
7759;SDS011;3924;48.830;9.262;2022-11-20T01:36:19;7.83;;;5.67;;
7759;SDS011;3924;48.830;9.262;2022-11-20T01:38:48;7.23;;;5.63;;
7759;SDS011;3924;48.830;9.262;2022-11-20T01:41:18;8.70;;;5.93;;
7759;SDS011;3924;48.830;9.262;2022-11-20T01:44:05;7.57;;;6.27;;
7759;SDS011;3924;48.830;9.262;2022-11-20T01:46:33;6.80;;;5.67;;
7759;SDS011;3924;48.830;9.262;2022-11-20T01:49:03;6.73;;;5.17;;
7759;SDS011;3924;48.830;9.262;2022-11-20T01:51:35;6.40;;;5.03;;
7759;SDS011;3924;48.830;9.262;2022-11-20T01:54:10;7.90;;;5.50;;
7759;SDS011;3924;48.830;9.262;2022-11-20T01:56:44;6.37;;;5.53;;
7759;SDS011;3924;48.830;9.262;2022-11-20T01:59:14;8.50;;;6.13;;
7759;SDS011;3924;48.830;9.262;2022-11-20T02:01:43;9.50;;;5.77;;
7759;SDS011;3924;48.830;9.262;2022-11-20T02:04:10;6.37;;;5.30;;
7759;SDS011;3924;48.830;9.262;2022-11-20T02:06:40;7.93;;;5.50;;
7759;SDS011;3924;48.830;9.262;2022-11-20T02:09:10;6.73;;;5.13;;
7759;SDS011;3924;48.830;9.262;2022-11-20T02:11:37;7.00;;;5.13;;
7759;SDS011;3924;48.830;9.262;2022-11-20T02:14:04;5.03;;;4.17;;
7759;SDS011;3924;48.830;9.262;2022-11-20T02:16:31;5.87;;;5.10;;
7759;SDS011;3924;48.830;9.262;2022-11-20T02:19:02;7.00;;;3.73;;
7759;SDS011;3924;48.830;9.262;2022-11-20T02:24:15;3.50;;;2.80;;
7759;SDS011;3924;48.830;9.262;2022-11-20T02:29:10;3.30;;;3.00;;
7759;SDS011;3924;48.830;9.262;2022-11-20T02:31:37;4.73;;;3.07;;
7759;SDS011;3924;48.830;9.262;2022-11-20T02:34:06;4.47;;;3.73;;
7759;SDS011;3924;48.830;9.262;2022-11-20T02:36:33;3.20;;;2.87;;
7759;SDS011;3924;48.830;9.262;2022-11-20T02:39:02;3.77;;;3.40;;
7759;SDS011;3924;48.830;9.262;2022-11-20T02:41:31;3.33;;;3.03;;
7759;SDS011;3924;48.830;9.262;2022-11-20T02:44:03;5.53;;;3.10;;
7759;SDS011;3924;48.830;9.262;2022-11-20T02:46:31;4.07;;;3.30;;
7759;SDS011;3924;48.830;9.262;2022-11-20T02:48:58;5.67;;;2.70;;
7759;SDS011;3924;48.830;9.262;2022-11-20T02:51:26;2.83;;;2.47;;
7759;SDS011;3924;48.830;9.262;2022-11-20T02:53:52;3.73;;;2.27;;
7759;SDS011;3924;48.830;9.262;2022-11-20T02:56:19;3.07;;;2.40;;
7759;SDS011;3924;48.830;9.262;2022-11-20T02:58:46;3.43;;;2.57;;
7759;SDS011;3924;48.830;9.262;2022-11-20T03:01:12;2.60;;;2.40;;
7759;SDS011;3924;48.830;9.262;2022-11-20T03:03:39;2.50;;;2.30;;
7759;SDS011;3924;48.830;9.262;2022-11-20T03:06:05;7.03;;;2.63;;
7759;SDS011;3924;48.830;9.262;2022-11-20T03:08:32;2.20;;;2.10;;
7759;SDS011;3924;48.830;9.262;2022-11-20T03:11:02;2.23;;;2.07;;
7759;SDS011;3924;48.830;9.262;2022-11-20T03:13:30;2.53;;;1.80;;
7759;SDS011;3924;48.830;9.262;2022-11-20T03:15:56;3.53;;;1.80;;
7759;SDS011;3924;48.830;9.262;2022-11-20T03:18:23;1.93;;;1.83;;
7759;SDS011;3924;48.830;9.262;2022-11-20T03:20:49;1.70;;;1.60;;
7759;SDS011;3924;48.830;9.262;2022-11-20T03:23:16;2.23;;;2.03;;
7759;SDS011;3924;48.830;9.262;2022-11-20T03:25:42;1.97;;;1.87;;
7759;SDS011;3924;48.830;9.262;2022-11-20T03:28:08;2.13;;;1.80;;
7759;SDS011;3924;48.830;9.262;2022-11-20T03:30:35;1.60;;;1.50;;
7759;SDS011;3924;48.830;9.262;2022-11-20T03:33:01;1.77;;;1.67;;
7759;SDS011;3924;48.830;9.262;2022-11-20T03:35:28;2.70;;;1.83;;
7759;SDS011;3924;48.830;9.262;2022-11-20T03:37:54;1.57;;;1.50;;
7759;SDS011;3924;48.830;9.262;2022-11-20T03:40:21;1.93;;;1.83;;
7759;SDS011;3924;48.830;9.262;2022-11-20T03:42:47;1.80;;;1.70;;
7759;SDS011;3924;48.830;9.262;2022-11-20T03:45:14;2.93;;;1.77;;
7759;SDS011;3924;48.830;9.262;2022-11-20T03:47:42;2.70;;;1.77;;
7759;SDS011;3924;48.830;9.262;2022-11-20T03:50:11;2.00;;;1.80;;
7759;SDS011;3924;48.830;9.262;2022-11-20T03:52:39;4.50;;;1.93;;
7759;SDS011;3924;48.830;9.262;2022-11-20T03:55:06;2.40;;;2.20;;
7759;SDS011;3924;48.830;9.262;2022-11-20T03:57:33;1.80;;;1.70;;
7759;SDS011;3924;48.830;9.262;2022-11-20T04:00:00;2.00;;;1.80;;
7759;SDS011;3924;48.830;9.262;2022-11-20T04:02:26;2.37;;;1.80;;
7759;SDS011;3924;48.830;9.262;2022-11-20T04:04:52;1.87;;;1.77;;
7759;SDS011;3924;48.830;9.262;2022-11-20T04:07:19;2.90;;;1.97;;
7759;SDS011;3924;48.830;9.262;2022-11-20T04:09:45;2.27;;;2.07;;
7759;SDS011;3924;48.830;9.262;2022-11-20T04:12:12;1.90;;;1.80;;
7759;SDS011;3924;48.830;9.262;2022-11-20T04:14:38;3.03;;;2.20;;
7759;SDS011;3924;48.830;9.262;2022-11-20T04:17:05;2.63;;;1.50;;
7759;SDS011;3924;48.830;9.262;2022-11-20T04:19:31;2.33;;;2.13;;
7759;SDS011;3924;48.830;9.262;2022-11-20T04:21:58;2.10;;;2.00;;
7759;SDS011;3924;48.830;9.262;2022-11-20T04:24:24;2.17;;;2.07;;
7759;SDS011;3924;48.830;9.262;2022-11-20T04:26:52;2.33;;;1.80;;
7759;SDS011;3924;48.830;9.262;2022-11-20T04:29:18;3.83;;;2.13;;
7759;SDS011;3924;48.830;9.262;2022-11-20T04:31:45;2.30;;;2.10;;
7759;SDS011;3924;48.830;9.262;2022-11-20T04:34:12;3.30;;;1.90;;
7759;SDS011;3924;48.830;9.262;2022-11-20T04:36:39;3.30;;;2.00;;
7759;SDS011;3924;48.830;9.262;2022-11-20T04:39:05;2.33;;;2.10;;
7759;SDS011;3924;48.830;9.262;2022-11-20T04:41:35;2.30;;;2.10;;
7759;SDS011;3924;48.830;9.262;2022-11-20T04:44:03;3.67;;;2.37;;
7759;SDS011;3924;48.830;9.262;2022-11-20T04:46:32;2.50;;;2.10;;
7759;SDS011;3924;48.830;9.262;2022-11-20T04:49:00;1.97;;;1.87;;
7759;SDS011;3924;48.830;9.262;2022-11-20T04:51:27;2.47;;;2.10;;
7759;SDS011;3924;48.830;9.262;2022-11-20T04:53:53;2.20;;;1.77;;
7759;SDS011;3924;48.830;9.262;2022-11-20T04:56:20;1.80;;;1.70;;
7759;SDS011;3924;48.830;9.262;2022-11-20T04:58:46;1.73;;;1.63;;
7759;SDS011;3924;48.830;9.262;2022-11-20T05:01:17;2.00;;;1.90;;
7759;SDS011;3924;48.830;9.262;2022-11-20T05:03:46;3.37;;;2.07;;
7759;SDS011;3924;48.830;9.262;2022-11-20T05:06:13;2.70;;;1.77;;
7759;SDS011;3924;48.830;9.262;2022-11-20T05:08:41;4.10;;;2.10;;
7759;SDS011;3924;48.830;9.262;2022-11-20T05:11:09;2.20;;;2.00;;
7759;SDS011;3924;48.830;9.262;2022-11-20T05:13:36;2.47;;;1.97;;
7759;SDS011;3924;48.830;9.262;2022-11-20T05:16:05;4.03;;;2.00;;
7759;SDS011;3924;48.830;9.262;2022-11-20T05:18:33;2.23;;;1.90;;
7759;SDS011;3924;48.830;9.262;2022-11-20T05:21:01;1.60;;;1.50;;
7759;SDS011;3924;48.830;9.262;2022-11-20T05:23:28;3.07;;;1.90;;
7759;SDS011;3924;48.830;9.262;2022-11-20T05:25:56;2.30;;;1.97;;
7759;SDS011;3924;48.830;9.262;2022-11-20T05:28:24;2.40;;;1.80;;
7759;SDS011;3924;48.830;9.262;2022-11-20T05:30:51;3.03;;;1.73;;
7759;SDS011;3924;48.830;9.262;2022-11-20T05:33:18;1.83;;;1.73;;
7759;SDS011;3924;48.830;9.262;2022-11-20T05:35:44;2.47;;;1.83;;
7759;SDS011;3924;48.830;9.262;2022-11-20T05:38:11;2.37;;;2.10;;
7759;SDS011;3924;48.830;9.262;2022-11-20T05:40:38;3.23;;;2.07;;
7759;SDS011;3924;48.830;9.262;2022-11-20T05:43:04;2.87;;;2.00;;
7759;SDS011;3924;48.830;9.262;2022-11-20T05:45:31;2.73;;;2.20;;
7759;SDS011;3924;48.830;9.262;2022-11-20T05:47:58;1.80;;;1.70;;
7759;SDS011;3924;48.830;9.262;2022-11-20T05:50:29;1.80;;;1.70;;
7759;SDS011;3924;48.830;9.262;2022-11-20T05:52:59;1.93;;;1.73;;
7759;SDS011;3924;48.830;9.262;2022-11-20T05:55:27;4.43;;;2.20;;
7759;SDS011;3924;48.830;9.262;2022-11-20T05:57:54;4.37;;;2.07;;
7759;SDS011;3924;48.830;9.262;2022-11-20T06:00:21;2.00;;;1.90;;
7759;SDS011;3924;48.830;9.262;2022-11-20T06:02:48;1.93;;;1.77;;
7759;SDS011;3924;48.830;9.262;2022-11-20T06:05:15;1.90;;;1.80;;
7759;SDS011;3924;48.830;9.262;2022-11-20T06:07:42;1.83;;;1.73;;
7759;SDS011;3924;48.830;9.262;2022-11-20T06:10:09;1.93;;;1.80;;
7759;SDS011;3924;48.830;9.262;2022-11-20T06:12:36;1.97;;;1.87;;
7759;SDS011;3924;48.830;9.262;2022-11-20T06:15:03;1.73;;;1.63;;
7759;SDS011;3924;48.830;9.262;2022-11-20T06:17:30;2.40;;;2.20;;
7759;SDS011;3924;48.830;9.262;2022-11-20T06:19:56;1.80;;;1.70;;
7759;SDS011;3924;48.830;9.262;2022-11-20T06:22:23;2.90;;;1.97;;
7759;SDS011;3924;48.830;9.262;2022-11-20T06:24:50;2.40;;;1.77;;
7759;SDS011;3924;48.830;9.262;2022-11-20T06:27:16;3.20;;;1.70;;
7759;SDS011;3924;48.830;9.262;2022-11-20T06:29:43;2.10;;;1.90;;
7759;SDS011;3924;48.830;9.262;2022-11-20T06:32:10;1.87;;;1.77;;
7759;SDS011;3924;48.830;9.262;2022-11-20T06:34:37;2.23;;;2.00;;
7759;SDS011;3924;48.830;9.262;2022-11-20T06:37:05;2.23;;;2.03;;
7759;SDS011;3924;48.830;9.262;2022-11-20T06:39:31;2.27;;;2.07;;
7759;SDS011;3924;48.830;9.262;2022-11-20T06:41:58;2.10;;;1.90;;
7759;SDS011;3924;48.830;9.262;2022-11-20T06:44:25;2.10;;;2.00;;
7759;SDS011;3924;48.830;9.262;2022-11-20T06:46:52;2.37;;;1.60;;
7759;SDS011;3924;48.830;9.262;2022-11-20T06:49:18;1.43;;;1.33;;
7759;SDS011;3924;48.830;9.262;2022-11-20T06:51:45;3.53;;;1.50;;
7759;SDS011;3924;48.830;9.262;2022-11-20T06:54:12;1.83;;;1.73;;
7759;SDS011;3924;48.830;9.262;2022-11-20T06:56:39;1.70;;;1.60;;
7759;SDS011;3924;48.830;9.262;2022-11-20T06:59:06;2.07;;;1.60;;
7759;SDS011;3924;48.830;9.262;2022-11-20T07:01:33;1.40;;;1.30;;
7759;SDS011;3924;48.830;9.262;2022-11-20T07:04:01;1.70;;;1.60;;
7759;SDS011;3924;48.830;9.262;2022-11-20T07:06:28;1.73;;;1.63;;
7759;SDS011;3924;48.830;9.262;2022-11-20T07:08:54;2.67;;;1.67;;
7759;SDS011;3924;48.830;9.262;2022-11-20T07:11:21;2.00;;;1.90;;
7759;SDS011;3924;48.830;9.262;2022-11-20T07:13:48;1.80;;;1.70;;
7759;SDS011;3924;48.830;9.262;2022-11-20T07:16:14;1.80;;;1.70;;
7759;SDS011;3924;48.830;9.262;2022-11-20T07:18:41;1.67;;;1.50;;
7759;SDS011;3924;48.830;9.262;2022-11-20T07:21:15;1.50;;;1.40;;
7759;SDS011;3924;48.830;9.262;2022-11-20T07:23:41;1.27;;;1.27;;
7759;SDS011;3924;48.830;9.262;2022-11-20T07:26:09;1.50;;;1.40;;
7759;SDS011;3924;48.830;9.262;2022-11-20T07:28:37;2.30;;;1.50;;
7759;SDS011;3924;48.830;9.262;2022-11-20T07:31:04;1.40;;;1.37;;
7759;SDS011;3924;48.830;9.262;2022-11-20T07:33:33;3.70;;;1.60;;
7759;SDS011;3924;48.830;9.262;2022-11-20T07:36:00;1.60;;;1.50;;
7759;SDS011;3924;48.830;9.262;2022-11-20T07:38:27;1.70;;;1.60;;
7759;SDS011;3924;48.830;9.262;2022-11-20T07:40:54;2.07;;;1.57;;
7759;SDS011;3924;48.830;9.262;2022-11-20T07:43:24;1.60;;;1.40;;
7759;SDS011;3924;48.830;9.262;2022-11-20T07:45:51;1.10;;;1.10;;
7759;SDS011;3924;48.830;9.262;2022-11-20T07:48:18;1.67;;;1.40;;
7759;SDS011;3924;48.830;9.262;2022-11-20T07:50:44;2.20;;;1.73;;
7759;SDS011;3924;48.830;9.262;2022-11-20T07:53:12;2.03;;;1.50;;
7759;SDS011;3924;48.830;9.262;2022-11-20T07:55:39;1.57;;;1.47;;
7759;SDS011;3924;48.830;9.262;2022-11-20T07:58:06;1.40;;;1.30;;
7759;SDS011;3924;48.830;9.262;2022-11-20T08:00:33;1.70;;;1.40;;
7759;SDS011;3924;48.830;9.262;2022-11-20T08:03:02;1.67;;;1.57;;
7759;SDS011;3924;48.830;9.262;2022-11-20T08:05:29;1.87;;;1.77;;
7759;SDS011;3924;48.830;9.262;2022-11-20T08:07:56;1.73;;;1.63;;
7759;SDS011;3924;48.830;9.262;2022-11-20T08:10:23;2.00;;;1.53;;
7759;SDS011;3924;48.830;9.262;2022-11-20T08:12:50;1.50;;;1.40;;
7759;SDS011;3924;48.830;9.262;2022-11-20T08:15:37;1.90;;;1.70;;
7759;SDS011;3924;48.830;9.262;2022-11-20T08:18:06;1.57;;;1.47;;
7759;SDS011;3924;48.830;9.262;2022-11-20T08:20:54;1.53;;;1.40;;
7759;SDS011;3924;48.830;9.262;2022-11-20T08:23:22;1.53;;;1.43;;
7759;SDS011;3924;48.830;9.262;2022-11-20T08:25:49;2.27;;;1.70;;
7759;SDS011;3924;48.830;9.262;2022-11-20T08:28:17;1.40;;;1.40;;
7759;SDS011;3924;48.830;9.262;2022-11-20T08:30:47;1.50;;;1.40;;
7759;SDS011;3924;48.830;9.262;2022-11-20T08:33:15;1.37;;;1.27;;
7759;SDS011;3924;48.830;9.262;2022-11-20T08:35:43;1.93;;;1.83;;
7759;SDS011;3924;48.830;9.262;2022-11-20T08:38:10;2.10;;;1.70;;
7759;SDS011;3924;48.830;9.262;2022-11-20T08:40:36;1.47;;;1.33;;
7759;SDS011;3924;48.830;9.262;2022-11-20T08:43:03;1.67;;;1.57;;
7759;SDS011;3924;48.830;9.262;2022-11-20T08:45:30;1.30;;;1.30;;
7759;SDS011;3924;48.830;9.262;2022-11-20T08:48:01;1.27;;;1.20;;
7759;SDS011;3924;48.830;9.262;2022-11-20T08:50:28;1.43;;;1.33;;
7759;SDS011;3924;48.830;9.262;2022-11-20T08:53:06;1.40;;;1.30;;
7759;SDS011;3924;48.830;9.262;2022-11-20T08:55:33;2.20;;;1.20;;
7759;SDS011;3924;48.830;9.262;2022-11-20T08:58:05;1.93;;;1.17;;
7759;SDS011;3924;48.830;9.262;2022-11-20T09:00:32;1.63;;;1.50;;
7759;SDS011;3924;48.830;9.262;2022-11-20T09:03:01;1.30;;;1.20;;
7759;SDS011;3924;48.830;9.262;2022-11-20T09:05:28;1.13;;;1.10;;
7759;SDS011;3924;48.830;9.262;2022-11-20T09:07:58;1.00;;;1.00;;
7759;SDS011;3924;48.830;9.262;2022-11-20T09:10:25;1.83;;;1.30;;
7759;SDS011;3924;48.830;9.262;2022-11-20T09:12:53;1.50;;;1.40;;
7759;SDS011;3924;48.830;9.262;2022-11-20T09:15:21;1.80;;;1.57;;
7759;SDS011;3924;48.830;9.262;2022-11-20T09:17:58;1.30;;;1.20;;
7759;SDS011;3924;48.830;9.262;2022-11-20T09:20:27;1.10;;;1.00;;
7759;SDS011;3924;48.830;9.262;2022-11-20T09:22:56;0.90;;;0.90;;
7759;SDS011;3924;48.830;9.262;2022-11-20T09:25:23;0.93;;;0.93;;
7759;SDS011;3924;48.830;9.262;2022-11-20T09:27:57;1.00;;;1.00;;
7759;SDS011;3924;48.830;9.262;2022-11-20T09:30:24;1.07;;;1.00;;
7759;SDS011;3924;48.830;9.262;2022-11-20T09:32:52;0.80;;;0.80;;
7759;SDS011;3924;48.830;9.262;2022-11-20T09:35:19;0.73;;;0.73;;
7759;SDS011;3924;48.830;9.262;2022-11-20T09:37:46;0.70;;;0.70;;
7759;SDS011;3924;48.830;9.262;2022-11-20T09:40:27;0.80;;;0.80;;
7759;SDS011;3924;48.830;9.262;2022-11-20T09:43:00;1.80;;;0.80;;
7759;SDS011;3924;48.830;9.262;2022-11-20T09:56:39;0.83;;;0.83;;
7759;SDS011;3924;48.830;9.262;2022-11-20T09:59:13;0.70;;;0.70;;
7759;SDS011;3924;48.830;9.262;2022-11-20T10:02:01;0.70;;;0.70;;
7759;SDS011;3924;48.830;9.262;2022-11-20T10:04:37;0.80;;;0.70;;
7759;SDS011;3924;48.830;9.262;2022-11-20T10:07:30;1.10;;;0.80;;
7759;SDS011;3924;48.830;9.262;2022-11-20T10:09:58;3.03;;;1.00;;
7759;SDS011;3924;48.830;9.262;2022-11-20T10:30:11;1.33;;;0.87;;
7759;SDS011;3924;48.830;9.262;2022-11-20T10:32:40;2.10;;;1.00;;
7759;SDS011;3924;48.830;9.262;2022-11-20T10:35:15;0.67;;;0.67;;
7759;SDS011;3924;48.830;9.262;2022-11-20T10:37:54;0.90;;;0.90;;
7759;SDS011;3924;48.830;9.262;2022-11-20T10:43:16;0.80;;;0.80;;
7759;SDS011;3924;48.830;9.262;2022-11-20T10:46:05;1.23;;;0.70;;
7759;SDS011;3924;48.830;9.262;2022-11-20T10:48:36;1.30;;;1.07;;
7759;SDS011;3924;48.830;9.262;2022-11-20T10:51:11;0.97;;;0.97;;
7759;SDS011;3924;48.830;9.262;2022-11-20T10:59:25;1.80;;;1.00;;
7759;SDS011;3924;48.830;9.262;2022-11-20T11:01:54;1.60;;;0.70;;
7759;SDS011;3924;48.830;9.262;2022-11-20T11:04:35;2.30;;;0.70;;
7759;SDS011;3924;48.830;9.262;2022-11-20T11:07:09;1.37;;;1.10;;
7759;SDS011;3924;48.830;9.262;2022-11-20T11:09:42;0.83;;;0.83;;
7759;SDS011;3924;48.830;9.262;2022-11-20T11:12:12;1.13;;;1.10;;
7759;SDS011;3924;48.830;9.262;2022-11-20T11:17:21;0.93;;;0.90;;
7759;SDS011;3924;48.830;9.262;2022-11-20T11:19:57;1.23;;;1.00;;
7759;SDS011;3924;48.830;9.262;2022-11-20T11:22:29;0.80;;;0.80;;
7759;SDS011;3924;48.830;9.262;2022-11-20T11:24:58;0.80;;;0.80;;
7759;SDS011;3924;48.830;9.262;2022-11-20T11:27:28;1.33;;;1.00;;
7759;SDS011;3924;48.830;9.262;2022-11-20T11:30:02;0.70;;;0.70;;
7759;SDS011;3924;48.830;9.262;2022-11-20T11:32:38;0.80;;;0.80;;
7759;SDS011;3924;48.830;9.262;2022-11-20T11:35:06;2.93;;;0.80;;
7759;SDS011;3924;48.830;9.262;2022-11-20T11:37:44;1.53;;;0.97;;
7759;SDS011;3924;48.830;9.262;2022-11-20T11:40:14;0.90;;;0.90;;
7759;SDS011;3924;48.830;9.262;2022-11-20T11:43:01;1.07;;;1.00;;
7759;SDS011;3924;48.830;9.262;2022-11-20T11:45:31;1.40;;;1.30;;
7759;SDS011;3924;48.830;9.262;2022-11-20T11:47:58;1.50;;;1.10;;
7759;SDS011;3924;48.830;9.262;2022-11-20T11:50:29;1.30;;;1.20;;
7759;SDS011;3924;48.830;9.262;2022-11-20T12:03:55;1.73;;;1.20;;
7759;SDS011;3924;48.830;9.262;2022-11-20T12:06:50;1.57;;;1.30;;
7759;SDS011;3924;48.830;9.262;2022-11-20T12:09:23;1.30;;;1.10;;
7759;SDS011;3924;48.830;9.262;2022-11-20T12:11:54;1.10;;;1.10;;
7759;SDS011;3924;48.830;9.262;2022-11-20T12:14:37;5.20;;;1.30;;
7759;SDS011;3924;48.830;9.262;2022-11-20T12:17:11;1.57;;;1.47;;
7759;SDS011;3924;48.830;9.262;2022-11-20T12:19:39;3.07;;;1.27;;
7759;SDS011;3924;48.830;9.262;2022-11-20T12:25:47;1.23;;;1.20;;
7759;SDS011;3924;48.830;9.262;2022-11-20T12:30:18;4.40;;;1.60;;
7759;SDS011;3924;48.830;9.262;2022-11-20T13:01:50;0.60;;;0.60;;
7759;SDS011;3924;48.830;9.262;2022-11-20T13:04:42;1.10;;;0.97;;
7759;SDS011;3924;48.830;9.262;2022-11-20T13:07:12;2.17;;;1.03;;
7759;SDS011;3924;48.830;9.262;2022-11-20T13:09:44;2.80;;;1.00;;
7759;SDS011;3924;48.830;9.262;2022-11-20T13:12:18;0.73;;;0.70;;
7759;SDS011;3924;48.830;9.262;2022-11-20T13:15:06;1.10;;;1.03;;
7759;SDS011;3924;48.830;9.262;2022-11-20T13:18:00;4.50;;;0.87;;
7759;SDS011;3924;48.830;9.262;2022-11-20T13:20:30;0.83;;;0.83;;
7759;SDS011;3924;48.830;9.262;2022-11-20T13:23:00;1.23;;;0.93;;
7759;SDS011;3924;48.830;9.262;2022-11-20T13:25:36;1.57;;;1.07;;
7759;SDS011;3924;48.830;9.262;2022-11-20T13:28:05;2.00;;;0.97;;
7759;SDS011;3924;48.830;9.262;2022-11-20T13:30:56;0.83;;;0.77;;
7759;SDS011;3924;48.830;9.262;2022-11-20T13:33:34;0.73;;;0.73;;
7759;SDS011;3924;48.830;9.262;2022-11-20T13:38:43;0.87;;;0.60;;
7759;SDS011;3924;48.830;9.262;2022-11-20T13:41:23;0.83;;;0.83;;
7759;SDS011;3924;48.830;9.262;2022-11-20T13:44:09;1.90;;;0.97;;
7759;SDS011;3924;48.830;9.262;2022-11-20T13:46:40;2.00;;;0.87;;
7759;SDS011;3924;48.830;9.262;2022-11-20T13:49:14;1.07;;;0.80;;
7759;SDS011;3924;48.830;9.262;2022-11-20T14:00:14;0.83;;;0.83;;
7759;SDS011;3924;48.830;9.262;2022-11-20T14:05:34;1.57;;;0.83;;
7759;SDS011;3924;48.830;9.262;2022-11-20T14:08:06;1.90;;;0.67;;
7759;SDS011;3924;48.830;9.262;2022-11-20T14:10:39;0.60;;;0.60;;
7759;SDS011;3924;48.830;9.262;2022-11-20T14:13:10;0.80;;;0.80;;
7759;SDS011;3924;48.830;9.262;2022-11-20T14:15:43;1.00;;;0.60;;
7759;SDS011;3924;48.830;9.262;2022-11-20T14:18:11;0.80;;;0.80;;
7759;SDS011;3924;48.830;9.262;2022-11-20T14:20:45;0.70;;;0.60;;
7759;SDS011;3924;48.830;9.262;2022-11-20T14:23:12;0.50;;;0.50;;
7759;SDS011;3924;48.830;9.262;2022-11-20T14:25:55;0.77;;;0.77;;
7759;SDS011;3924;48.830;9.262;2022-11-20T14:28:29;0.97;;;0.60;;
7759;SDS011;3924;48.830;9.262;2022-11-20T14:30:56;0.60;;;0.60;;
7759;SDS011;3924;48.830;9.262;2022-11-20T14:33:25;0.83;;;0.70;;
7759;SDS011;3924;48.830;9.262;2022-11-20T14:35:56;5.90;;;1.03;;
7759;SDS011;3924;48.830;9.262;2022-11-20T14:38:25;0.93;;;0.80;;
7759;SDS011;3924;48.830;9.262;2022-11-20T14:40:54;0.80;;;0.70;;
7759;SDS011;3924;48.830;9.262;2022-11-20T14:43:22;2.63;;;0.80;;
7759;SDS011;3924;48.830;9.262;2022-11-20T14:45:58;1.33;;;0.70;;
7759;SDS011;3924;48.830;9.262;2022-11-20T14:48:28;0.70;;;0.60;;
7759;SDS011;3924;48.830;9.262;2022-11-20T14:50:58;0.73;;;0.70;;
7759;SDS011;3924;48.830;9.262;2022-11-20T14:53:25;1.27;;;0.80;;
7759;SDS011;3924;48.830;9.262;2022-11-20T14:55:58;0.77;;;0.77;;
7759;SDS011;3924;48.830;9.262;2022-11-20T14:58:31;1.00;;;1.00;;
7759;SDS011;3924;48.830;9.262;2022-11-20T15:01:03;1.67;;;0.83;;
7759;SDS011;3924;48.830;9.262;2022-11-20T15:03:32;2.00;;;0.77;;
7759;SDS011;3924;48.830;9.262;2022-11-20T15:06:04;0.73;;;0.63;;
7759;SDS011;3924;48.830;9.262;2022-11-20T15:08:31;6.53;;;1.00;;
7759;SDS011;3924;48.830;9.262;2022-11-20T15:10:58;5.70;;;1.00;;
7759;SDS011;3924;48.830;9.262;2022-11-20T15:13:29;3.47;;;1.10;;
7759;SDS011;3924;48.830;9.262;2022-11-20T15:15:58;1.67;;;1.00;;
7759;SDS011;3924;48.830;9.262;2022-11-20T15:18:28;1.33;;;1.00;;
7759;SDS011;3924;48.830;9.262;2022-11-20T15:20:57;1.40;;;1.30;;
7759;SDS011;3924;48.830;9.262;2022-11-20T15:23:27;1.93;;;1.23;;
7759;SDS011;3924;48.830;9.262;2022-11-20T15:25:55;2.33;;;1.43;;
7759;SDS011;3924;48.830;9.262;2022-11-20T15:31:14;1.47;;;1.03;;
7759;SDS011;3924;48.830;9.262;2022-11-20T15:33:46;2.30;;;1.27;;
7759;SDS011;3924;48.830;9.262;2022-11-20T15:36:16;1.50;;;1.00;;
7759;SDS011;3924;48.830;9.262;2022-11-20T15:38:46;0.93;;;0.93;;
7759;SDS011;3924;48.830;9.262;2022-11-20T15:41:13;1.77;;;0.97;;
7759;SDS011;3924;48.830;9.262;2022-11-20T15:43:39;1.30;;;1.17;;
7759;SDS011;3924;48.830;9.262;2022-11-20T15:46:06;2.67;;;1.20;;
7759;SDS011;3924;48.830;9.262;2022-11-20T15:48:39;1.40;;;1.00;;
7759;SDS011;3924;48.830;9.262;2022-11-20T15:54:24;4.30;;;1.13;;
7759;SDS011;3924;48.830;9.262;2022-11-20T15:56:50;2.33;;;0.90;;
7759;SDS011;3924;48.830;9.262;2022-11-20T15:59:20;1.00;;;1.00;;
7759;SDS011;3924;48.830;9.262;2022-11-20T16:01:47;1.83;;;1.13;;
7759;SDS011;3924;48.830;9.262;2022-11-20T16:04:14;1.00;;;1.00;;
7759;SDS011;3924;48.830;9.262;2022-11-20T16:06:44;1.07;;;1.07;;
7759;SDS011;3924;48.830;9.262;2022-11-20T16:09:11;1.17;;;0.93;;
7759;SDS011;3924;48.830;9.262;2022-11-20T16:11:37;2.47;;;1.20;;
7759;SDS011;3924;48.830;9.262;2022-11-20T16:14:05;6.00;;;1.17;;
7759;SDS011;3924;48.830;9.262;2022-11-20T16:16:51;1.00;;;1.00;;
7759;SDS011;3924;48.830;9.262;2022-11-20T16:19:20;1.20;;;1.10;;
7759;SDS011;3924;48.830;9.262;2022-11-20T16:21:47;1.13;;;1.03;;
7759;SDS011;3924;48.830;9.262;2022-11-20T16:24:14;1.33;;;1.20;;
7759;SDS011;3924;48.830;9.262;2022-11-20T16:26:42;1.17;;;1.07;;
7759;SDS011;3924;48.830;9.262;2022-11-20T16:29:09;2.23;;;1.30;;
7759;SDS011;3924;48.830;9.262;2022-11-20T16:31:36;1.40;;;1.30;;
7759;SDS011;3924;48.830;9.262;2022-11-20T16:34:04;1.60;;;1.50;;
7759;SDS011;3924;48.830;9.262;2022-11-20T16:36:41;1.20;;;1.10;;
7759;SDS011;3924;48.830;9.262;2022-11-20T16:39:09;2.03;;;1.33;;
7759;SDS011;3924;48.830;9.262;2022-11-20T16:41:37;1.67;;;1.30;;
7759;SDS011;3924;48.830;9.262;2022-11-20T16:44:08;1.47;;;1.30;;
7759;SDS011;3924;48.830;9.262;2022-11-20T16:46:36;1.40;;;1.30;;
7759;SDS011;3924;48.830;9.262;2022-11-20T16:49:05;1.40;;;1.30;;
7759;SDS011;3924;48.830;9.262;2022-11-20T16:51:36;1.30;;;1.20;;
7759;SDS011;3924;48.830;9.262;2022-11-20T16:54:07;1.37;;;1.13;;
7759;SDS011;3924;48.830;9.262;2022-11-20T16:56:43;2.37;;;1.50;;
7759;SDS011;3924;48.830;9.262;2022-11-20T16:59:13;1.80;;;1.70;;
7759;SDS011;3924;48.830;9.262;2022-11-20T17:01:40;1.37;;;1.27;;
7759;SDS011;3924;48.830;9.262;2022-11-20T17:04:08;1.53;;;1.40;;
7759;SDS011;3924;48.830;9.262;2022-11-20T17:06:36;2.40;;;1.30;;
7759;SDS011;3924;48.830;9.262;2022-11-20T17:09:06;1.53;;;1.40;;
7759;SDS011;3924;48.830;9.262;2022-11-20T17:11:37;1.77;;;1.67;;
7759;SDS011;3924;48.830;9.262;2022-11-20T17:14:09;3.73;;;2.00;;
7759;SDS011;3924;48.830;9.262;2022-11-20T17:16:36;3.00;;;1.50;;
7759;SDS011;3924;48.830;9.262;2022-11-20T17:19:03;1.60;;;1.50;;
7759;SDS011;3924;48.830;9.262;2022-11-20T17:21:31;2.83;;;1.50;;
7759;SDS011;3924;48.830;9.262;2022-11-20T17:24:02;2.30;;;1.50;;